createdAt,value
2022-12-15T05:17:41.826Z,5.43
2022-12-15T05:20:29.401Z,5.50
2022-12-15T05:23:17.984Z,5.46
2022-12-15T05:26:05.104Z,5.48
2022-12-15T05:28:52.684Z,5.46
2022-12-15T05:31:39.370Z,5.53
2022-12-15T05:34:07.123Z,5.52
2022-12-15T05:36:35.040Z,5.58
2022-12-15T05:39:04.164Z,5.58
2022-12-15T05:41:32.477Z,5.59
2022-12-15T05:44:01.704Z,5.58
2022-12-15T05:46:29.859Z,5.61
2022-12-15T05:48:58.061Z,5.53
2022-12-15T05:51:26.025Z,5.55
2022-12-15T05:53:54.780Z,5.50
2022-12-15T05:56:22.731Z,5.40
2022-12-15T05:58:50.742Z,5.52
2022-12-15T06:01:20.250Z,5.54
2022-12-15T06:03:48.205Z,5.53
2022-12-15T06:06:16.574Z,5.53
2022-12-15T06:08:44.893Z,5.50
2022-12-15T06:11:15.737Z,5.53
2022-12-15T06:13:45.640Z,5.54
2022-12-15T06:16:19.764Z,5.56
2022-12-15T06:18:54.476Z,5.56
2022-12-15T06:21:35.787Z,5.56
2022-12-15T06:24:08.124Z,5.56
2022-12-15T06:26:40.261Z,5.55
2022-12-15T06:29:12.844Z,5.50
2022-12-15T06:31:41.829Z,5.54
2022-12-15T06:34:15.863Z,5.42
2022-12-15T06:36:44.339Z,5.48
2022-12-15T06:39:15.622Z,5.47
2022-12-15T06:41:44.075Z,5.44
2022-12-15T06:44:16.791Z,5.46
2022-12-15T06:46:46.968Z,5.35
2022-12-15T06:49:15.391Z,5.41
2022-12-15T06:51:45.246Z,5.41
2022-12-15T06:54:13.913Z,5.43
2022-12-15T06:56:42.651Z,5.32
2022-12-15T06:59:12.132Z,5.47
2022-12-15T07:01:42.149Z,5.38
2022-12-15T07:04:14.325Z,5.36
2022-12-15T07:06:43.308Z,5.24
2022-12-15T07:09:17.692Z,5.29
2022-12-15T07:11:50.700Z,5.24
2022-12-15T07:14:23.156Z,5.32
2022-12-15T07:16:57.692Z,5.21
2022-12-15T07:19:26.651Z,5.30
2022-12-15T07:22:00.081Z,5.30
2022-12-15T07:24:30.055Z,5.09
2022-12-15T07:26:59.087Z,5.19
2022-12-15T07:29:29.033Z,5.22
2022-12-15T07:32:03.974Z,5.24
2022-12-15T07:34:32.339Z,5.24
2022-12-15T07:37:00.588Z,5.22
2022-12-15T07:39:28.557Z,5.25
2022-12-15T07:41:57.864Z,5.26
2022-12-15T07:44:26.700Z,5.25
2022-12-15T07:46:55.581Z,5.29
2022-12-15T07:49:23.972Z,5.29
2022-12-15T07:51:52.046Z,5.23
2022-12-15T07:54:20.949Z,5.27
2022-12-15T07:56:50.360Z,5.21
2022-12-15T07:59:19.898Z,5.23
2022-12-15T08:01:48.155Z,5.23
2022-12-15T08:04:17.330Z,5.21
2022-12-15T08:06:45.965Z,5.20
2022-12-15T08:09:14.207Z,5.20
2022-12-15T08:11:43.335Z,5.13
2022-12-15T08:14:16.940Z,5.16
2022-12-15T08:16:55.829Z,5.08
2022-12-15T08:19:25.986Z,5.09
2022-12-15T08:21:54.507Z,5.02
2022-12-15T08:24:24.515Z,5.03
2022-12-15T08:26:53.424Z,4.95
2022-12-15T08:32:12.680Z,4.91
2022-12-15T08:34:42.697Z,4.92
2022-12-15T08:37:12.638Z,4.91
2022-12-15T08:39:41.336Z,4.91
2022-12-15T08:42:11.067Z,4.92
2022-12-15T08:44:39.125Z,4.91
2022-12-15T08:47:08.445Z,4.91
2022-12-15T08:49:36.575Z,4.90
2022-12-15T08:52:04.841Z,4.94
2022-12-15T08:54:33.485Z,4.92
2022-12-15T08:57:04.085Z,4.96
2022-12-15T08:59:32.737Z,4.91
2022-12-15T09:02:02.129Z,4.95
2022-12-15T09:04:30.804Z,4.91
2022-12-15T09:06:59.511Z,4.93
2022-12-15T09:09:28.286Z,4.94
2022-12-15T09:11:56.497Z,4.95
2022-12-15T09:14:29.083Z,4.94
2022-12-15T09:16:57.955Z,4.90
2022-12-15T09:19:27.105Z,5.00
2022-12-15T09:21:56.093Z,4.89
2022-12-15T09:24:34.035Z,5.00
2022-12-15T09:27:03.728Z,5.03
2022-12-15T09:29:35.304Z,5.05
2022-12-15T09:32:08.980Z,5.07
2022-12-15T09:34:41.720Z,5.09
2022-12-15T09:37:09.643Z,5.07
2022-12-15T09:39:39.616Z,5.09
2022-12-15T09:42:27.616Z,5.16
2022-12-15T09:45:24.081Z,5.18
2022-12-15T09:48:10.075Z,5.20
2022-12-15T09:50:41.599Z,5.18
2022-12-15T09:53:29.793Z,4.98
2022-12-15T09:56:34.570Z,5.10
2022-12-15T09:59:46.805Z,5.12
2022-12-15T10:02:22.113Z,5.11
2022-12-15T10:05:01.417Z,5.14
2022-12-15T10:07:41.052Z,5.04
2022-12-15T10:10:27.343Z,5.16
2022-12-15T10:13:02.501Z,5.10
2022-12-15T10:15:41.740Z,5.13
2022-12-15T10:19:16.449Z,5.16
2022-12-15T10:21:44.434Z,5.21
2022-12-15T10:24:51.741Z,5.22
2022-12-15T10:27:17.215Z,5.27
2022-12-15T10:30:17.556Z,5.29
2022-12-15T10:33:21.921Z,5.27
2022-12-15T10:35:54.452Z,5.24
2022-12-15T10:38:22.267Z,5.18
2022-12-15T10:41:08.925Z,5.29
2022-12-15T10:43:43.458Z,5.34
2022-12-15T10:46:32.350Z,5.33
2022-12-15T10:49:23.004Z,5.40
2022-12-15T10:52:02.935Z,5.42
2022-12-15T10:54:37.460Z,5.32
2022-12-15T10:57:58.353Z,5.39
2022-12-15T11:00:32.951Z,5.36
2022-12-15T11:03:01.961Z,5.29
2022-12-15T11:05:32.378Z,5.45
2022-12-15T11:08:31.278Z,5.45
2022-12-15T11:11:19.033Z,5.48
2022-12-15T11:14:11.750Z,5.47
2022-12-15T11:16:50.642Z,5.48
2022-12-15T11:19:46.400Z,5.51
2022-12-15T11:22:42.078Z,5.51
2022-12-15T11:25:55.064Z,5.45
2022-12-15T11:28:41.094Z,5.51
2022-12-15T11:31:25.213Z,5.59
2022-12-15T11:33:56.335Z,5.60
2022-12-15T11:37:13.138Z,5.57
2022-12-15T11:40:15.408Z,5.61
2022-12-15T11:43:39.254Z,5.62
2022-12-15T11:46:54.666Z,5.67
2022-12-15T11:49:49.790Z,5.71
2022-12-15T11:52:22.647Z,5.78
2022-12-15T11:55:13.938Z,5.64
2022-12-15T11:57:52.145Z,5.76
2022-12-15T12:00:23.833Z,5.76
2022-12-15T12:02:56.008Z,5.67
2022-12-15T12:05:42.688Z,5.80
2022-12-15T12:09:21.549Z,5.83
2022-12-15T12:12:05.188Z,5.83
2022-12-15T12:14:45.837Z,5.85
2022-12-15T12:17:49.556Z,5.93
2022-12-15T12:20:54.666Z,5.94
2022-12-15T12:23:54.397Z,5.98
2022-12-15T12:27:12.729Z,6.03
2022-12-15T12:29:59.449Z,6.06
2022-12-15T12:33:21.502Z,6.13
2022-12-15T12:36:03.307Z,6.14
2022-12-15T12:38:41.680Z,6.07
2022-12-15T12:41:21.817Z,6.10
2022-12-15T12:43:58.980Z,6.20
2022-12-15T12:46:40.558Z,6.17
2022-12-15T12:49:42.946Z,6.24
2022-12-15T12:52:34.915Z,6.21
2022-12-15T12:55:26.146Z,6.29
2022-12-15T12:57:57.028Z,6.24
2022-12-15T13:00:32.749Z,6.29
2022-12-15T13:03:18.720Z,6.34
2022-12-15T13:05:50.781Z,6.33
2022-12-15T13:08:29.429Z,6.38
2022-12-15T13:11:53.783Z,6.34
2022-12-15T13:14:46.599Z,6.25
2022-12-15T13:17:39.370Z,6.34
2022-12-15T13:20:26.718Z,6.30
2022-12-15T13:23:20.605Z,6.28
2022-12-15T13:25:55.825Z,6.28
2022-12-15T13:28:37.501Z,6.27
2022-12-15T13:31:21.869Z,6.28
2022-12-15T13:33:50.797Z,6.24
2022-12-15T13:36:40.534Z,6.25
2022-12-15T13:39:18.502Z,6.25
2022-12-15T13:42:32.509Z,6.25
2022-12-15T13:44:52.515Z,6.20
2022-12-15T13:47:28.730Z,6.16
2022-12-15T13:50:30.951Z,6.15
2022-12-15T13:53:20.201Z,6.06
2022-12-15T13:56:39.263Z,5.99
2022-12-15T13:59:43.435Z,5.97
2022-12-15T14:02:38.769Z,5.94
2022-12-15T14:05:19.725Z,5.91
2022-12-15T14:08:03.737Z,5.84
2022-12-15T14:10:49.041Z,5.73
2022-12-15T14:13:37.410Z,5.77
2022-12-15T14:16:21.497Z,5.76
2022-12-15T14:19:17.193Z,5.59
2022-12-15T14:21:57.837Z,5.64
2022-12-15T14:24:40.197Z,5.65
2022-12-15T14:27:10.446Z,5.63
2022-12-15T14:29:39.724Z,5.64
2022-12-15T14:32:10.698Z,5.64
2022-12-15T14:34:42.072Z,5.64
2022-12-15T14:37:20.258Z,5.61
2022-12-15T15:07:19.260Z,5.05
2022-12-15T15:09:47.890Z,5.01
2022-12-15T15:12:25.249Z,5.03
2022-12-15T15:15:08.620Z,4.98
2022-12-15T15:17:43.884Z,4.96
2022-12-15T15:20:38.436Z,4.90
2022-12-15T15:23:19.770Z,4.90
2022-12-15T15:26:09.995Z,4.73
2022-12-15T15:28:41.183Z,4.76
2022-12-15T15:31:35.268Z,4.78
2022-12-15T15:34:11.622Z,4.69
2022-12-15T15:36:40.695Z,4.72
2022-12-15T15:39:16.119Z,4.71
2022-12-15T15:41:45.232Z,4.65
2022-12-15T15:44:16.034Z,4.58
2022-12-15T15:46:52.821Z,4.63
2022-12-15T15:49:24.761Z,4.59
2022-12-15T15:51:54.897Z,4.54
2022-12-15T15:54:28.737Z,4.53
2022-12-15T15:56:58.676Z,4.50
2022-12-15T15:59:29.173Z,4.44
2022-12-15T16:01:59.395Z,4.36
2022-12-15T16:04:29.615Z,4.42
2022-12-15T16:07:09.310Z,4.38
2022-12-15T16:09:40.986Z,4.44
2022-12-15T16:12:42.789Z,4.41
2022-12-15T16:15:20.993Z,4.31
2022-12-15T16:17:50.222Z,4.29
2022-12-15T16:20:21.895Z,4.25
2022-12-15T16:23:31.718Z,4.18
2022-12-15T16:26:03.134Z,4.26
2022-12-15T16:28:32.222Z,4.12
2022-12-15T16:31:01.806Z,4.14
2022-12-15T16:33:30.071Z,4.23
2022-12-15T16:36:00.250Z,4.27
2022-12-15T16:38:31.757Z,4.30
2022-12-15T16:41:31.020Z,4.18
2022-12-15T16:43:59.599Z,4.23
2022-12-15T16:46:28.946Z,4.16
2022-12-15T16:49:00.040Z,4.27
2022-12-15T16:51:42.714Z,4.31
2022-12-15T16:54:23.660Z,4.25
2022-12-15T16:56:56.130Z,4.21
2022-12-15T16:59:36.243Z,4.25
2022-12-15T17:02:28.370Z,4.23
2022-12-15T17:04:57.579Z,4.18
2022-12-15T17:07:30.184Z,4.15
2022-12-15T17:09:58.931Z,3.93
2022-12-15T17:12:27.051Z,4.06
2022-12-15T17:14:58.156Z,4.04
2022-12-15T17:17:28.768Z,4.13
2022-12-15T17:22:49.187Z,4.12
2022-12-15T17:25:46.147Z,4.17
2022-12-15T17:28:22.178Z,4.23
2022-12-15T17:30:52.871Z,4.23
2022-12-15T17:33:27.990Z,4.28
2022-12-15T17:36:03.216Z,4.30
2022-12-15T17:38:31.694Z,4.30
2022-12-15T17:41:02.056Z,4.41
2022-12-15T17:43:35.860Z,4.45
2022-12-15T17:46:04.907Z,4.46
2022-12-15T17:48:33.857Z,4.48
2022-12-15T17:51:02.853Z,4.56
2022-12-15T17:53:33.173Z,4.56
2022-12-15T17:56:03.848Z,4.56
2022-12-15T17:58:32.106Z,4.53
2022-12-15T18:01:00.336Z,4.57
2022-12-15T18:03:31.950Z,4.46
2022-12-15T18:06:00.523Z,4.44
2022-12-15T18:08:33.289Z,4.52
2022-12-15T18:11:03.884Z,4.50
2022-12-15T18:13:35.670Z,4.43
2022-12-15T18:16:04.754Z,4.44
2022-12-15T18:18:35.320Z,4.43
2022-12-15T18:41:28.216Z,5.51
2022-12-15T18:43:58.976Z,5.33
2022-12-15T18:46:28.432Z,5.24
2022-12-15T18:48:56.912Z,5.20
2022-12-15T18:51:30.910Z,5.17
2022-12-15T18:54:02.753Z,5.11
2022-12-15T18:56:30.705Z,5.06
2022-12-15T18:59:02.180Z,5.00
2022-12-15T19:01:30.618Z,4.96
2022-12-15T19:04:01.956Z,4.88
2022-12-15T19:06:43.914Z,4.85
2022-12-15T19:09:21.806Z,4.82
2022-12-15T19:12:19.548Z,4.78
2022-12-15T19:14:55.022Z,4.76
2022-12-15T19:17:43.149Z,4.76
2022-12-15T19:20:55.570Z,4.78
2022-12-15T19:23:23.851Z,4.63
2022-12-15T19:25:53.185Z,4.64
2022-12-15T19:28:24.411Z,4.78
2022-12-15T19:30:53.376Z,4.76
2022-12-15T19:33:21.576Z,4.80
2022-12-15T19:35:51.594Z,4.81
2022-12-15T19:38:27.313Z,4.87
2022-12-15T19:40:56.390Z,4.88
2022-12-15T19:43:25.519Z,4.85
2022-12-15T19:45:53.944Z,4.89
2022-12-15T19:48:24.091Z,4.90
2022-12-15T19:50:54.637Z,4.92
2022-12-15T19:53:27.300Z,4.93
2022-12-15T19:55:59.007Z,4.96
2022-12-15T19:58:33.642Z,4.98
2022-12-15T20:01:06.945Z,5.00
2022-12-15T20:03:36.931Z,5.03
2022-12-15T20:06:17.477Z,5.11
2022-12-15T20:08:52.362Z,5.12
2022-12-15T20:11:27.056Z,5.15
2022-12-15T20:13:56.233Z,5.16
2022-12-15T20:16:24.873Z,5.18
2022-12-15T20:18:56.058Z,5.17
2022-12-15T20:21:32.363Z,5.19
2022-12-15T20:24:07.537Z,5.17
2022-12-15T20:26:37.589Z,5.16
2022-12-15T20:29:12.095Z,5.17
2022-12-15T20:31:40.653Z,5.18
2022-12-15T20:34:08.830Z,5.18
2022-12-15T20:36:36.957Z,5.17
2022-12-15T20:39:10.677Z,5.15
2022-12-15T20:41:38.943Z,5.15
2022-12-15T20:44:13.436Z,5.16
2022-12-15T20:46:43.135Z,5.15
2022-12-15T20:49:20.165Z,5.17
2022-12-15T20:51:50.005Z,5.16
2022-12-15T20:54:21.924Z,5.15
2022-12-15T20:56:50.656Z,5.09
2022-12-15T20:59:19.495Z,5.09
2022-12-15T21:01:48.339Z,5.07
2022-12-15T21:04:29.960Z,5.05
2022-12-15T21:06:58.797Z,5.04
2022-12-15T21:09:26.685Z,5.04
2022-12-15T21:11:55.142Z,5.05
2022-12-15T21:14:25.069Z,5.03
2022-12-15T21:16:53.433Z,5.03
2022-12-15T21:19:22.837Z,5.02
2022-12-15T21:21:55.575Z,5.03
2022-12-15T21:24:27.340Z,4.99
2022-12-15T21:26:55.930Z,4.84
2022-12-15T21:29:28.430Z,4.91
2022-12-15T21:31:56.419Z,4.93
2022-12-15T21:34:24.812Z,4.95
2022-12-15T21:36:55.283Z,4.96
2022-12-15T21:39:35.575Z,4.94
2022-12-15T21:42:14.305Z,4.92
2022-12-15T21:44:43.031Z,4.90
2022-12-15T21:47:50.400Z,4.90
2022-12-15T21:50:20.450Z,4.88
2022-12-15T21:52:48.833Z,4.90
2022-12-15T21:55:18.937Z,4.91
2022-12-15T21:57:46.891Z,4.92
2022-12-15T22:00:18.442Z,4.89
2022-12-15T22:02:48.894Z,4.89
2022-12-15T22:05:20.389Z,4.88
2022-12-15T22:07:49.625Z,4.85
2022-12-15T22:10:18.262Z,4.86
2022-12-15T22:12:59.041Z,4.86
2022-12-15T22:15:29.243Z,4.83
2022-12-15T22:17:56.991Z,4.81
2022-12-15T22:20:25.728Z,4.83
2022-12-15T22:22:53.533Z,4.84
2022-12-15T22:25:25.636Z,4.85
2022-12-15T22:27:54.781Z,4.83
2022-12-15T22:30:26.601Z,4.86
2022-12-15T22:32:54.707Z,4.84
2022-12-15T22:35:25.843Z,4.84
2022-12-15T22:37:55.248Z,4.84
2022-12-15T22:40:38.833Z,4.84
2022-12-15T22:43:21.750Z,4.89
2022-12-15T22:45:53.275Z,4.87
2022-12-15T22:48:24.385Z,4.89
2022-12-15T22:50:52.409Z,4.88
2022-12-15T22:53:21.068Z,4.87
2022-12-15T22:55:51.069Z,4.87
2022-12-15T22:58:53.560Z,4.85
2022-12-15T23:01:21.671Z,4.81
2022-12-15T23:03:52.143Z,4.88
2022-12-15T23:06:20.345Z,4.86
2022-12-15T23:08:55.853Z,4.87
2022-12-15T23:11:37.090Z,4.89
2022-12-15T23:14:16.609Z,4.85
2022-12-15T23:16:46.394Z,4.86
2022-12-15T23:19:23.909Z,4.85
2022-12-15T23:21:52.331Z,4.87
2022-12-15T23:24:20.289Z,4.86
2022-12-15T23:26:49.039Z,4.89
2022-12-15T23:29:16.983Z,4.92
2022-12-15T23:31:44.743Z,4.94
2022-12-15T23:34:12.685Z,4.96
2022-12-15T23:36:40.512Z,4.99
2022-12-15T23:39:08.488Z,4.96
2022-12-15T23:41:36.294Z,4.99
2022-12-15T23:44:04.004Z,5.01
2022-12-15T23:46:31.767Z,5.01
2022-12-15T23:48:59.936Z,4.98
2022-12-15T23:51:27.896Z,5.01
2022-12-15T23:53:55.630Z,5.03
2022-12-15T23:56:25.135Z,5.02
2022-12-15T23:58:59.275Z,5.07
